Time;durP1;ratioP1;P1;durP2;ratioP2;P2;SDS_P1;SDS_P2;PMS_P1;PMS_P2;Temp;Humidity;BMP_temperature;BMP_pressure;BME280_temperature;BME280_humidity;BME280_pressure;Samples;Min_cycle;Max_cycle;Signal;HPM_P1;HPM_P2
2022/11/27 00:00:03;;;;;;;;;;;6.30;99.90;;;;;;5069215;28;19947;-59
2022/11/27 00:02:29;;;;;;;;;;;6.30;99.90;;;;;;5069048;28;19909;-58
2022/11/27 00:04:54;;;;;;;;;;;6.30;99.90;;;;;;5069065;28;20337;-59
2022/11/27 00:07:20;;;;;;;;;;;6.30;99.90;;;;;;5069517;28;19913;-59
2022/11/27 00:09:45;;;;;;;;;;;6.20;99.90;;;;;;5069688;28;20075;-59
2022/11/27 00:12:11;;;;;;;;;;;6.20;99.90;;;;;;5069256;28;20023;-60
2022/11/27 00:14:36;;;;;;;;;;;6.20;99.90;;;;;;5068938;28;19908;-60
2022/11/27 00:17:02;;;;;;;;;;;6.10;99.90;;;;;;5069319;28;19963;-59
2022/11/27 00:19:28;;;;;;;;;;;6.10;99.90;;;;;;5068795;28;19962;-58
2022/11/27 00:21:53;;;;;;;;;;;6.10;99.90;;;;;;5068685;28;20339;-59
2022/11/27 00:24:18;;;;;;;;;;;6.10;99.90;;;;;;5069136;28;19919;-60
2022/11/27 00:26:45;;;;;;;;;;;6.00;99.90;;;;;;5068888;28;20437;-59
2022/11/27 00:29:11;;;;;;;;;;;6.00;99.90;;;;;;5068977;28;19934;-59
2022/11/27 00:31:36;;;;;;;;;;;5.90;99.90;;;;;;5068238;28;19909;-60
2022/11/27 00:34:03;;;;;;;;;;;5.90;99.90;;;;;;5096553;22;19920;-63
2022/11/27 00:36:29;;;;;;;;;;;5.80;99.90;;;;;;5086349;28;19908;-63
2022/11/27 00:38:55;;;;;;;;;;;5.80;99.90;;;;;;5088165;28;20367;-62
2022/11/27 00:41:22;;;;;;;;;;;5.80;99.90;;;;;;5088710;28;19968;-62
2022/11/27 00:43:48;;;;;;;;;;;5.70;99.90;;;;;;5091572;28;19908;-62
2022/11/27 00:46:18;;;;;;;;;;;5.70;99.90;;;;;;5092662;28;19912;-62
2022/11/27 00:48:44;;;;;;;;;;;5.60;99.90;;;;;;5092615;28;19923;-62
2022/11/27 00:51:12;;;;;;;;;;;5.60;99.90;;;;;;5091925;28;19912;-65
2022/11/27 00:53:37;;;;;;;;;;;5.60;99.90;;;;;;5092722;28;19912;-63
2022/11/27 00:56:03;;;;;;;;;;;5.50;99.90;;;;;;5092134;28;20276;-62
2022/11/27 00:58:29;;;;;;;;;;;5.40;99.90;;;;;;5092320;28;19931;-63
2022/11/27 01:01:02;;;;;;;;;;;5.40;99.90;;;;;;5092333;28;19912;-62
2022/11/27 01:03:28;;;;;;;;;;;5.40;99.90;;;;;;5092839;28;19934;-62
2022/11/27 01:05:53;;;;;;;;;;;5.40;99.90;;;;;;5092314;28;19939;-62
2022/11/27 01:08:19;;;;;;;;;;;5.30;99.90;;;;;;5081919;28;20462;-63
2022/11/27 01:10:48;;;;;;;;;;;5.30;99.90;;;;;;5092776;28;19976;-63
2022/11/27 01:13:14;;;;;;;;;;;5.30;99.90;;;;;;5079264;28;19912;-63
2022/11/27 01:15:39;;;;;;;;;;;5.30;99.90;;;;;;5092382;28;20006;-63
2022/11/27 01:18:04;;;;;;;;;;;5.30;99.90;;;;;;5091900;28;19908;-63
2022/11/27 01:20:30;;;;;;;;;;;5.30;99.90;;;;;;5092347;28;20371;-63
2022/11/27 01:22:55;;;;;;;;;;;5.30;99.90;;;;;;5088093;28;19957;-62
2022/11/27 01:25:21;;;;;;;;;;;5.30;99.90;;;;;;5091200;28;19908;-63
2022/11/27 01:27:46;;;;;;;;;;;5.20;99.90;;;;;;5091682;28;19956;-63
2022/11/27 01:30:12;;;;;;;;;;;5.20;99.90;;;;;;5091653;28;19998;-63
2022/11/27 01:32:37;;;;;;;;;;;5.20;99.90;;;;;;5090513;28;19912;-63
2022/11/27 01:35:03;;;;;;;;;;;5.10;99.90;;;;;;5091329;28;20375;-63
2022/11/27 01:37:28;;;;;;;;;;;5.10;99.90;;;;;;5091931;28;19912;-63
2022/11/27 01:39:54;;;;;;;;;;;5.00;99.90;;;;;;5092011;28;20375;-63
2022/11/27 01:42:19;;;;;;;;;;;5.00;99.90;;;;;;5091986;28;20373;-63
2022/11/27 01:44:47;;;;;;;;;;;4.90;99.90;;;;;;5092035;28;19911;-63
2022/11/27 01:47:15;;;;;;;;;;;4.90;99.90;;;;;;5073506;28;19920;-62
2022/11/27 01:49:47;;;;;;;;;;;4.90;99.90;;;;;;5091834;28;19904;-63
2022/11/27 01:52:15;;;;;;;;;;;4.90;99.90;;;;;;5073303;28;19908;-63
2022/11/27 01:54:44;;;;;;;;;;;4.90;99.90;;;;;;5086647;28;19904;-63
2022/11/27 01:57:15;;;;;;;;;;;4.90;99.90;;;;;;5091561;28;20585;-62
2022/11/27 01:59:41;;;;;;;;;;;4.90;99.90;;;;;;5075912;28;19908;-63
2022/11/27 02:02:06;;;;;;;;;;;4.90;99.90;;;;;;5089193;28;19930;-63
2022/11/27 02:04:32;;;;;;;;;;;4.90;99.90;;;;;;5089900;28;19911;-63
2022/11/27 02:06:58;;;;;;;;;;;4.80;99.90;;;;;;5091508;28;19904;-63
2022/11/27 02:09:24;;;;;;;;;;;4.70;99.90;;;;;;5091182;28;20144;-63
2022/11/27 02:11:56;;;;;;;;;;;4.70;99.90;;;;;;5072786;28;20301;-63
2022/11/27 02:14:37;;;;;;;;;;;4.70;99.90;;;;;;5091277;28;19931;-64
2022/11/27 02:17:15;;;;;;;;;;;4.60;99.90;;;;;;5091450;28;19959;-63
2022/11/27 02:19:41;;;;;;;;;;;4.60;99.90;;;;;;5091110;28;19923;-63
2022/11/27 02:22:18;;;;;;;;;;;4.60;99.90;;;;;;5090853;28;19912;-63
2022/11/27 02:24:50;;;;;;;;;;;4.50;99.90;;;;;;5080407;28;20221;-63
2022/11/27 02:27:24;;;;;;;;;;;4.50;99.90;;;;;;5081479;28;20341;-63
2022/11/27 02:29:53;;;;;;;;;;;4.50;99.90;;;;;;5091615;28;20355;-63
2022/11/27 02:32:21;;;;;;;;;;;4.50;99.90;;;;;;5080074;28;19904;-63
2022/11/27 02:35:03;;;;;;;;;;;4.40;99.90;;;;;;5090034;28;19918;-64
2022/11/27 02:37:28;;;;;;;;;;;4.40;99.90;;;;;;5084481;28;19915;-63
2022/11/27 02:40:15;;;;;;;;;;;4.40;99.90;;;;;;5090478;28;19907;-63
2022/11/27 02:42:46;;;;;;;;;;;4.30;99.90;;;;;;5085875;28;20200;-63
2022/11/27 02:45:13;;;;;;;;;;;4.30;99.90;;;;;;5090537;28;20011;-63
2022/11/27 02:47:39;;;;;;;;;;;4.30;99.90;;;;;;5090196;28;19927;-62
2022/11/27 02:50:18;;;;;;;;;;;4.20;99.90;;;;;;5090120;28;20290;-64
2022/11/27 02:52:44;;;;;;;;;;;4.20;99.90;;;;;;5071922;28;19965;-63
2022/11/27 02:55:11;;;;;;;;;;;4.20;99.90;;;;;;5071943;28;19919;-63
2022/11/27 02:57:37;;;;;;;;;;;4.20;99.90;;;;;;5090465;28;20222;-62
2022/11/27 03:00:04;;;;;;;;;;;4.10;99.90;;;;;;5090148;28;19908;-63
2022/11/27 03:02:32;;;;;;;;;;;4.10;99.90;;;;;;5090444;28;20101;-63
2022/11/27 03:04:58;;;;;;;;;;;4.10;99.90;;;;;;5089408;28;19970;-63
2022/11/27 03:07:29;;;;;;;;;;;4.00;99.90;;;;;;5090399;28;19923;-63
2022/11/27 03:09:56;;;;;;;;;;;4.00;99.90;;;;;;5087153;28;19914;-63
2022/11/27 03:12:22;;;;;;;;;;;4.00;99.90;;;;;;5089799;28;19908;-63
2022/11/27 03:14:48;;;;;;;;;;;4.00;99.90;;;;;;5075601;28;20386;-63
2022/11/27 03:17:27;;;;;;;;;;;4.00;99.90;;;;;;5088136;28;19955;-63
2022/11/27 03:20:15;;;;;;;;;;;4.00;99.90;;;;;;5089732;28;20006;-63
2022/11/27 03:22:41;;;;;;;;;;;4.00;99.90;;;;;;5082958;28;20382;-62
2022/11/27 03:25:06;;;;;;;;;;;3.90;99.90;;;;;;5092288;28;19954;-63
2022/11/27 03:27:34;;;;;;;;;;;3.90;99.90;;;;;;5090299;28;19915;-62
2022/11/27 03:30:00;;;;;;;;;;;3.90;99.90;;;;;;5090249;28;19934;-63
2022/11/27 03:32:27;;;;;;;;;;;3.90;99.90;;;;;;5089798;28;20295;-62
2022/11/27 03:34:53;;;;;;;;;;;3.80;99.90;;;;;;5089520;28;20012;-63
2022/11/27 03:37:19;;;;;;;;;;;3.80;99.90;;;;;;5089820;28;20482;-63
2022/11/27 03:39:44;;;;;;;;;;;3.80;99.90;;;;;;5089760;28;19994;-63
2022/11/27 03:42:33;;;;;;;;;;;3.80;99.90;;;;;;5080818;28;19916;-62
2022/11/27 03:45:10;;;;;;;;;;;3.80;99.90;;;;;;5089772;28;19949;-63
2022/11/27 03:47:42;;;;;;;;;;;3.80;99.90;;;;;;5089782;28;20002;-62
2022/11/27 03:50:10;;;;;;;;;;;3.80;99.90;;;;;;5089345;28;20369;-63
2022/11/27 03:52:54;;;;;;;;;;;3.80;99.90;;;;;;5089477;28;19934;-63
2022/11/27 03:55:19;;;;;;;;;;;3.70;99.90;;;;;;5084501;28;19918;-62
2022/11/27 03:57:51;;;;;;;;;;;3.70;99.90;;;;;;5089290;28;19990;-63
2022/11/27 04:00:17;;;;;;;;;;;3.70;99.90;;;;;;5083455;28;19957;-62
2022/11/27 04:02:46;;;;;;;;;;;3.70;99.90;;;;;;5089120;28;19908;-63
2022/11/27 04:05:12;;;;;;;;;;;3.70;99.90;;;;;;5076973;28;19915;-63
2022/11/27 04:07:38;;;;;;;;;;;3.70;99.90;;;;;;5089204;28;19915;-63
2022/11/27 04:10:04;;;;;;;;;;;3.70;99.90;;;;;;5089307;28;20344;-62
2022/11/27 04:12:29;;;;;;;;;;;3.70;99.90;;;;;;5088667;28;19961;-62
2022/11/27 04:14:55;;;;;;;;;;;3.70;99.90;;;;;;5089034;28;19912;-63
2022/11/27 04:17:20;;;;;;;;;;;3.70;99.90;;;;;;5083657;28;20019;-63
2022/11/27 04:19:46;;;;;;;;;;;3.70;99.90;;;;;;5093273;28;19908;-62
2022/11/27 04:22:11;;;;;;;;;;;3.70;99.90;;;;;;5092820;28;19908;-62
2022/11/27 04:24:37;;;;;;;;;;;3.70;99.90;;;;;;5092256;28;20263;-63
2022/11/27 04:27:02;;;;;;;;;;;3.70;99.90;;;;;;5093089;28;19974;-61
2022/11/27 04:29:28;;;;;;;;;;;3.70;99.90;;;;;;5093010;28;19912;-64
2022/11/27 04:31:53;;;;;;;;;;;3.70;99.90;;;;;;5092404;28;20401;-63
2022/11/27 04:34:19;;;;;;;;;;;3.60;99.90;;;;;;5092642;28;20259;-64
2022/11/27 04:36:45;;;;;;;;;;;3.50;99.90;;;;;;5092185;28;19908;-63
2022/11/27 04:39:12;;;;;;;;;;;3.50;99.90;;;;;;5092496;28;19928;-63
2022/11/27 04:41:37;;;;;;;;;;;3.50;99.90;;;;;;5092642;28;20327;-63
2022/11/27 04:44:03;;;;;;;;;;;3.50;99.90;;;;;;5093211;28;19954;-63
2022/11/27 04:46:28;;;;;;;;;;;3.50;99.90;;;;;;5092833;28;20348;-63
2022/11/27 04:48:54;;;;;;;;;;;3.50;99.90;;;;;;5092846;28;19953;-63
2022/11/27 04:51:19;;;;;;;;;;;3.40;99.90;;;;;;5092690;28;20362;-63
2022/11/27 04:53:45;;;;;;;;;;;3.40;99.90;;;;;;5092791;28;19973;-63
2022/11/27 04:56:10;;;;;;;;;;;3.40;99.90;;;;;;5074432;28;19943;-62
2022/11/27 04:58:36;;;;;;;;;;;3.40;99.90;;;;;;5092323;28;20015;-62
2022/11/27 05:01:01;;;;;;;;;;;3.40;99.90;;;;;;5092738;28;19910;-63
2022/11/27 05:03:26;;;;;;;;;;;3.40;99.90;;;;;;5080893;28;19908;-63
2022/11/27 05:05:55;;;;;;;;;;;3.40;99.90;;;;;;5092714;28;19990;-63
2022/11/27 05:08:21;;;;;;;;;;;3.40;99.90;;;;;;5092541;28;20007;-63
2022/11/27 05:10:56;;;;;;;;;;;3.40;99.90;;;;;;5076616;28;20369;-62
2022/11/27 05:13:22;;;;;;;;;;;3.40;99.90;;;;;;5066940;28;19908;-62
2022/11/27 05:15:47;;;;;;;;;;;3.40;99.90;;;;;;5092021;28;19949;-62
2022/11/27 05:18:13;;;;;;;;;;;3.50;99.90;;;;;;5092285;28;20132;-63
2022/11/27 05:20:38;;;;;;;;;;;3.50;99.90;;;;;;5092134;28;19908;-62
2022/11/27 05:23:03;;;;;;;;;;;3.50;99.90;;;;;;5091955;28;19915;-63
2022/11/27 05:25:29;;;;;;;;;;;3.50;99.90;;;;;;5091714;28;20418;-62
2022/11/27 05:27:54;;;;;;;;;;;3.50;99.90;;;;;;5091230;28;20276;-62
2022/11/27 05:30:20;;;;;;;;;;;3.50;99.90;;;;;;5092236;28;19931;-63
2022/11/27 05:32:45;;;;;;;;;;;3.60;99.90;;;;;;5091305;28;19915;-63
2022/11/27 05:35:11;;;;;;;;;;;3.60;99.90;;;;;;5091745;28;19943;-63
2022/11/27 05:37:36;;;;;;;;;;;3.60;99.90;;;;;;5079508;28;19995;-64
2022/11/27 05:40:02;;;;;;;;;;;3.60;99.90;;;;;;5091670;28;19908;-64
2022/11/27 05:42:27;;;;;;;;;;;3.50;99.90;;;;;;5092070;28;20352;-63
2022/11/27 05:44:53;;;;;;;;;;;3.60;99.90;;;;;;5091788;28;19912;-63
2022/11/27 05:47:18;;;;;;;;;;;3.50;99.90;;;;;;5091894;28;20002;-62
2022/11/27 05:49:44;;;;;;;;;;;3.50;99.90;;;;;;5075696;28;19968;-63
2022/11/27 05:52:09;;;;;;;;;;;3.50;99.90;;;;;;5091109;28;20402;-63
2022/11/27 05:54:35;;;;;;;;;;;3.50;99.90;;;;;;5089880;28;19912;-62
2022/11/27 05:57:00;;;;;;;;;;;3.50;99.90;;;;;;5091834;28;19919;-63
2022/11/27 05:59:25;;;;;;;;;;;3.50;99.90;;;;;;5091815;28;19907;-63
2022/11/27 06:01:51;;;;;;;;;;;3.50;99.90;;;;;;5091117;28;20367;-64
2022/11/27 06:04:16;;;;;;;;;;;3.50;99.90;;;;;;5091890;28;19976;-61
2022/11/27 06:06:42;;;;;;;;;;;3.50;99.90;;;;;;5092168;28;20044;-62
2022/11/27 06:09:07;;;;;;;;;;;3.50;99.90;;;;;;5091068;28;19919;-63
2022/11/27 06:11:33;;;;;;;;;;;3.50;99.90;;;;;;5091021;28;19908;-63
2022/11/27 06:13:58;;;;;;;;;;;3.50;99.90;;;;;;5079004;28;19907;-63
2022/11/27 06:16:24;;;;;;;;;;;3.50;99.90;;;;;;5081302;28;19915;-64
2022/11/27 06:18:53;;;;;;;;;;;3.50;99.90;;;;;;5090886;28;19957;-63
2022/11/27 06:21:19;;;;;;;;;;;3.50;99.90;;;;;;5090761;28;19915;-64
2022/11/27 06:23:45;;;;;;;;;;;3.50;99.90;;;;;;5090788;28;19907;-64
2022/11/27 06:26:11;;;;;;;;;;;3.50;99.90;;;;;;5090064;28;20426;-64
2022/11/27 06:28:37;;;;;;;;;;;3.50;99.90;;;;;;5090931;28;20404;-63
2022/11/27 06:31:10;;;;;;;;;;;3.50;99.90;;;;;;5090864;28;20389;-63
2022/11/27 06:33:35;;;;;;;;;;;3.50;99.90;;;;;;5072797;28;19912;-63
2022/11/27 06:36:01;;;;;;;;;;;3.50;99.90;;;;;;5090842;28;20002;-64
2022/11/27 06:38:27;;;;;;;;;;;3.50;99.90;;;;;;5112881;22;19931;-59
2022/11/27 06:40:52;;;;;;;;;;;3.50;99.90;;;;;;5087970;28;19904;-59
2022/11/27 06:43:18;;;;;;;;;;;3.50;99.90;;;;;;5090345;28;19907;-59
2022/11/27 06:45:43;;;;;;;;;;;3.50;99.90;;;;;;5091262;28;19915;-59
2022/11/27 06:48:08;;;;;;;;;;;3.50;99.90;;;;;;5090696;28;19995;-58
2022/11/27 06:50:34;;;;;;;;;;;3.50;99.90;;;;;;5091169;28;20367;-57
2022/11/27 06:52:59;;;;;;;;;;;3.50;99.90;;;;;;5090472;28;20379;-59
2022/11/27 06:55:25;;;;;;;;;;;3.50;99.90;;;;;;5090831;28;19926;-58
2022/11/27 06:57:50;;;;;;;;;;;3.40;99.90;;;;;;5090718;28;19966;-60
2022/11/27 07:00:17;;;;;;;;;;;3.40;99.90;;;;;;5090896;28;19911;-60
2022/11/27 07:02:42;;;;;;;;;;;3.40;99.90;;;;;;5090752;28;20401;-59
2022/11/27 07:05:08;;;;;;;;;;;3.30;99.90;;;;;;5090529;28;19904;-56
2022/11/27 07:07:33;;;;;;;;;;;3.40;99.90;;;;;;5090484;28;20390;-59
2022/11/27 07:09:58;;;;;;;;;;;3.30;99.90;;;;;;5074647;28;19904;-59
2022/11/27 07:12:24;;;;;;;;;;;3.30;99.90;;;;;;5090661;28;19907;-60
2022/11/27 07:14:49;;;;;;;;;;;3.20;99.90;;;;;;5090549;28;19908;-59
2022/11/27 07:17:15;;;;;;;;;;;3.20;99.90;;;;;;5090613;28;20663;-59
2022/11/27 07:19:40;;;;;;;;;;;3.10;99.90;;;;;;5090310;28;20665;-59
2022/11/27 07:22:06;;;;;;;;;;;3.10;99.90;;;;;;5089467;28;19908;-59
2022/11/27 07:24:31;;;;;;;;;;;3.10;99.90;;;;;;5089815;28;19908;-59
2022/11/27 07:26:57;;;;;;;;;;;3.10;99.90;;;;;;5090058;28;19907;-59
2022/11/27 07:29:22;;;;;;;;;;;3.10;99.90;;;;;;5089801;28;20098;-59
2022/11/27 07:31:50;;;;;;;;;;;3.10;99.90;;;;;;5071732;28;19998;-59
2022/11/27 07:34:15;;;;;;;;;;;3.10;99.90;;;;;;5090395;28;19912;-56
2022/11/27 07:36:41;;;;;;;;;;;3.10;99.90;;;;;;5090008;28;20047;-60
2022/11/27 07:39:06;;;;;;;;;;;3.10;99.90;;;;;;5089446;28;19911;-61
2022/11/27 07:41:31;;;;;;;;;;;3.00;99.90;;;;;;5089791;28;19915;-59
2022/11/27 07:43:57;;;;;;;;;;;3.00;99.90;;;;;;5089779;28;19998;-60
2022/11/27 07:46:24;;;;;;;;;;;3.00;99.90;;;;;;5090322;28;19908;-59
2022/11/27 07:48:50;;;;;;;;;;;3.00;99.90;;;;;;5089522;28;19915;-59
2022/11/27 07:51:17;;;;;;;;;;;3.00;99.90;;;;;;5090119;28;20350;-59
2022/11/27 07:53:43;;;;;;;;;;;3.00;99.90;;;;;;5089757;28;19981;-60
2022/11/27 07:56:09;;;;;;;;;;;3.00;99.90;;;;;;5088948;28;19990;-61
2022/11/27 07:58:34;;;;;;;;;;;3.00;99.90;;;;;;5088453;28;20067;-60
2022/11/27 08:01:00;;;;;;;;;;;3.00;99.90;;;;;;5089722;28;20399;-60
2022/11/27 08:03:25;;;;;;;;;;;3.00;99.90;;;;;;5090051;28;19978;-58
2022/11/27 08:05:51;;;;;;;;;;;3.00;99.90;;;;;;5089758;28;19974;-60
2022/11/27 08:08:16;;;;;;;;;;;3.00;99.90;;;;;;5089397;28;20367;-59
2022/11/27 08:10:42;;;;;;;;;;;3.00;99.90;;;;;;5088990;28;19904;-59
2022/11/27 08:13:07;;;;;;;;;;;3.10;99.90;;;;;;5089362;28;19912;-58
2022/11/27 08:15:33;;;;;;;;;;;3.10;99.90;;;;;;5089007;28;19983;-60
2022/11/27 08:17:58;;;;;;;;;;;3.10;99.90;;;;;;5090721;28;19961;-58
2022/11/27 08:20:24;;;;;;;;;;;3.10;99.90;;;;;;5089453;28;20497;-59
2022/11/27 08:22:49;;;;;;;;;;;3.10;99.90;;;;;;5089111;28;19904;-60
2022/11/27 08:25:15;;;;;;;;;;;3.10;99.90;;;;;;5089940;28;19908;-59
2022/11/27 08:27:41;;;;;;;;;;;3.10;99.90;;;;;;5089724;28;19919;-59
2022/11/27 08:30:07;;;;;;;;;;;3.20;99.90;;;;;;5089705;28;19915;-59
2022/11/27 08:32:32;;;;;;;;;;;3.20;99.90;;;;;;5086627;28;19994;-60
2022/11/27 08:34:58;;;;;;;;;;;3.20;99.90;;;;;;5087538;28;19969;-60
2022/11/27 08:37:23;;;;;;;;;;;3.30;99.90;;;;;;5088419;28;19954;-60
2022/11/27 08:39:49;;;;;;;;;;;3.40;99.90;;;;;;5090092;28;19934;-59
2022/11/27 08:42:15;;;;;;;;;;;3.40;99.90;;;;;;5081687;28;19936;-59
2022/11/27 08:44:40;;;;;;;;;;;3.50;99.90;;;;;;5089383;28;20252;-60
2022/11/27 08:47:06;;;;;;;;;;;3.50;99.90;;;;;;5076037;28;20370;-59
2022/11/27 08:49:31;;;;;;;;;;;3.50;99.90;;;;;;5089628;28;19908;-60
2022/11/27 08:51:57;;;;;;;;;;;3.60;99.90;;;;;;5088908;28;20430;-60
2022/11/27 08:54:22;;;;;;;;;;;3.60;99.90;;;;;;5079060;28;20006;-58
2022/11/27 08:56:50;;;;;;;;;;;3.60;99.90;;;;;;5089314;28;19957;-60
2022/11/27 08:59:15;;;;;;;;;;;3.60;99.90;;;;;;5081329;28;19951;-60
2022/11/27 09:01:41;;;;;;;;;;;3.60;99.90;;;;;;5088842;28;20283;-59
2022/11/27 09:04:06;;;;;;;;;;;3.60;99.90;;;;;;5091609;28;19904;-60
2022/11/27 09:06:33;;;;;;;;;;;3.60;99.90;;;;;;5092545;28;19904;-59
2022/11/27 09:08:59;;;;;;;;;;;3.60;99.90;;;;;;5091782;28;19961;-58
2022/11/27 09:11:26;;;;;;;;;;;3.60;99.90;;;;;;5091972;28;20367;-58
2022/11/27 09:13:51;;;;;;;;;;;3.60;99.90;;;;;;5092743;28;19904;-59
2022/11/27 09:16:18;;;;;;;;;;;3.60;99.90;;;;;;5093353;28;19904;-59
2022/11/27 09:18:44;;;;;;;;;;;3.60;99.90;;;;;;5092313;28;19911;-57
2022/11/27 09:21:10;;;;;;;;;;;3.70;99.90;;;;;;5092375;28;19958;-58
2022/11/27 09:23:36;;;;;;;;;;;3.80;99.90;;;;;;5092482;28;19955;-60
2022/11/27 09:26:03;;;;;;;;;;;3.80;99.90;;;;;;5092428;28;19908;-58
2022/11/27 09:28:28;;;;;;;;;;;3.90;99.90;;;;;;5092493;28;20326;-57
2022/11/27 09:30:55;;;;;;;;;;;3.90;99.90;;;;;;5092580;28;19966;-60
2022/11/27 09:33:22;;;;;;;;;;;3.90;99.90;;;;;;5092099;28;19904;-58
2022/11/27 09:35:47;;;;;;;;;;;3.90;99.90;;;;;;5078037;28;19995;-58
2022/11/27 09:38:12;;;;;;;;;;;3.90;99.90;;;;;;5092139;28;20023;-59
2022/11/27 09:40:43;;;;;;;;;;;3.90;99.90;;;;;;5092395;28;20294;-59
2022/11/27 09:43:10;;;;;;;;;;;3.90;99.90;;;;;;5090912;28;19915;-58
2022/11/27 09:45:43;;;;;;;;;;;3.90;99.90;;;;;;5092081;28;19908;-59
2022/11/27 09:48:11;;;;;;;;;;;3.90;99.90;;;;;;5092197;28;20272;-58
2022/11/27 09:50:41;;;;;;;;;;;4.00;99.90;;;;;;5092033;28;19915;-58
2022/11/27 09:53:13;;;;;;;;;;;4.00;99.90;;;;;;5074811;28;20002;-58
2022/11/27 09:55:42;;;;;;;;;;;4.10;99.90;;;;;;5087196;28;19907;-59
2022/11/27 09:58:25;;;;;;;;;;;4.10;99.90;;;;;;5090491;28;19916;-58
2022/11/27 10:00:50;;;;;;;;;;;4.20;99.90;;;;;;5088764;28;19904;-60
2022/11/27 10:03:18;;;;;;;;;;;4.30;99.90;;;;;;5091701;28;19908;-58
2022/11/27 10:06:04;;;;;;;;;;;4.30;99.90;;;;;;5092054;28;20439;-58
2022/11/27 10:08:48;;;;;;;;;;;4.30;99.90;;;;;;5085407;28;19912;-58
2022/11/27 10:11:29;;;;;;;;;;;4.30;99.90;;;;;;5070567;28;19930;-59
2022/11/27 10:14:01;;;;;;;;;;;4.30;99.90;;;;;;5091291;28;20432;-58
2022/11/27 10:16:34;;;;;;;;;;;4.30;99.90;;;;;;5080767;28;19908;-59
2022/11/27 10:19:14;;;;;;;;;;;4.30;99.90;;;;;;5091326;28;20347;-57
2022/11/27 10:21:48;;;;;;;;;;;4.30;99.90;;;;;;5091147;28;19908;-59
2022/11/27 10:24:13;;;;;;;;;;;4.40;99.90;;;;;;5091599;28;19998;-59
2022/11/27 10:26:43;;;;;;;;;;;4.30;99.90;;;;;;5091646;28;19995;-57
2022/11/27 10:29:16;;;;;;;;;;;4.30;99.90;;;;;;5091462;28;19995;-57
2022/11/27 10:31:46;;;;;;;;;;;4.40;99.90;;;;;;5090972;28;19912;-57
2022/11/27 10:34:35;;;;;;;;;;;4.40;99.90;;;;;;5091234;28;20370;-58
2022/11/27 10:37:05;;;;;;;;;;;4.40;99.90;;;;;;5078206;28;19908;-59
2022/11/27 10:39:36;;;;;;;;;;;4.40;99.90;;;;;;5090870;28;20019;-58
2022/11/27 10:42:06;;;;;;;;;;;4.50;99.90;;;;;;5087472;28;19961;-59
2022/11/27 10:44:40;;;;;;;;;;;4.60;99.90;;;;;;5089995;28;19908;-60
2022/11/27 10:47:10;;;;;;;;;;;4.60;99.90;;;;;;5088991;28;20401;-59
2022/11/27 10:49:38;;;;;;;;;;;4.60;99.90;;;;;;5090520;28;20402;-59
2022/11/27 10:52:03;;;;;;;;;;;4.70;99.90;;;;;;5089704;28;19965;-59
2022/11/27 10:54:36;;;;;;;;;;;4.70;99.90;;;;;;5090684;28;19908;-56
2022/11/27 10:57:12;;;;;;;;;;;4.80;99.90;;;;;;5090547;28;19958;-59
2022/11/27 10:59:45;;;;;;;;;;;4.80;99.90;;;;;;5090426;28;19931;-59
2022/11/27 11:02:25;;;;;;;;;;;4.90;99.90;;;;;;5088421;28;19943;-57
2022/11/27 11:04:50;;;;;;;;;;;4.90;99.90;;;;;;5090906;28;19994;-59
2022/11/27 11:07:24;;;;;;;;;;;4.90;99.90;;;;;;5090526;28;20443;-56
2022/11/27 11:09:50;;;;;;;;;;;4.90;99.90;;;;;;5090953;28;19998;-59
2022/11/27 11:12:18;;;;;;;;;;;4.90;99.90;;;;;;5089842;28;20413;-60
2022/11/27 11:14:51;;;;;;;;;;;4.90;99.90;;;;;;5088769;28;19916;-58
2022/11/27 11:17:17;;;;;;;;;;;4.90;99.90;;;;;;5088017;28;20289;-58
2022/11/27 11:19:44;;;;;;;;;;;4.90;99.90;;;;;;5089919;28;20415;-59
2022/11/27 11:22:16;;;;;;;;;;;5.00;99.90;;;;;;5089923;28;19994;-59
2022/11/27 11:24:44;;;;;;;;;;;5.00;99.90;;;;;;5090272;28;19911;-60
2022/11/27 11:27:10;;;;;;;;;;;5.00;99.90;;;;;;5073316;28;19916;-58
2022/11/27 11:29:35;;;;;;;;;;;5.00;99.90;;;;;;5090628;28;19904;-60
2022/11/27 11:32:09;;;;;;;;;;;5.10;99.90;;;;;;5089763;28;19908;-58
2022/11/27 11:34:35;;;;;;;;;;;5.10;99.90;;;;;;5090136;28;19912;-56
2022/11/27 11:37:01;;;;;;;;;;;5.10;99.90;;;;;;5089854;28;19988;-58
2022/11/27 11:39:50;;;;;;;;;;;5.10;99.90;;;;;;5089750;28;20406;-59
2022/11/27 11:42:18;;;;;;;;;;;5.10;99.90;;;;;;5081740;28;19904;-59
2022/11/27 11:44:48;;;;;;;;;;;5.10;99.90;;;;;;5076030;28;19908;-59
2022/11/27 11:47:16;;;;;;;;;;;5.10;99.90;;;;;;5090088;28;19976;-59
2022/11/27 11:49:42;;;;;;;;;;;5.10;99.90;;;;;;5089910;28;19908;-59
2022/11/27 11:52:33;;;;;;;;;;;5.20;99.90;;;;;;5089840;28;20298;-60
2022/11/27 11:55:09;;;;;;;;;;;5.20;99.90;;;;;;5086530;28;20006;-58
2022/11/27 11:57:54;;;;;;;;;;;5.20;99.90;;;;;;5089787;28;19911;-60
2022/11/27 12:00:23;;;;;;;;;;;5.20;99.90;;;;;;5086352;28;19922;-60
2022/11/27 12:02:54;;;;;;;;;;;5.20;99.90;;;;;;5085960;28;19904;-59
2022/11/27 12:05:28;;;;;;;;;;;5.20;99.90;;;;;;5084685;28;19908;-58
2022/11/27 12:07:56;;;;;;;;;;;5.20;99.90;;;;;;5089304;28;20389;-60
2022/11/27 12:10:31;;;;;;;;;;;5.20;99.90;;;;;;5089677;28;19999;-58
2022/11/27 12:13:15;;;;;;;;;;;5.30;99.90;;;;;;5088966;28;20382;-60
2022/11/27 12:15:43;;;;;;;;;;;5.30;99.90;;;;;;5089382;28;19953;-59
2022/11/27 12:18:24;;;;;;;;;;;5.30;99.90;;;;;;5088076;28;19908;-60
2022/11/27 12:21:01;;;;;;;;;;;5.30;99.90;;;;;;5088939;28;20354;-58
2022/11/27 12:23:27;;;;;;;;;;;5.30;99.90;;;;;;5089518;28;20299;-59
2022/11/27 12:25:57;;;;;;;;;;;5.40;99.90;;;;;;5089452;28;19912;-60
2022/11/27 12:28:23;;;;;;;;;;;5.40;99.90;;;;;;5081922;28;19908;-60
2022/11/27 12:31:07;;;;;;;;;;;5.40;99.90;;;;;;5089032;28;19914;-60
2022/11/27 12:33:35;;;;;;;;;;;5.40;99.90;;;;;;5083487;28;19904;-60
2022/11/27 12:36:01;;;;;;;;;;;5.40;99.90;;;;;;5088834;28;20386;-59
2022/11/27 12:38:32;;;;;;;;;;;5.40;99.90;;;;;;5110952;22;20236;-60
2022/11/27 12:41:07;;;;;;;;;;;5.40;99.90;;;;;;5070646;28;19912;-62
2022/11/27 12:43:35;;;;;;;;;;;5.40;99.90;;;;;;5071881;28;20011;-61
2022/11/27 12:46:16;;;;;;;;;;;5.40;99.90;;;;;;5072402;28;19914;-61
2022/11/27 12:49:04;;;;;;;;;;;5.50;99.90;;;;;;5066982;28;19912;-59
2022/11/27 12:51:36;;;;;;;;;;;5.40;99.90;;;;;;5060129;28;20387;-60
2022/11/27 12:54:04;;;;;;;;;;;5.40;99.90;;;;;;5047120;28;19909;-60
2022/11/27 12:56:33;;;;;;;;;;;5.40;99.90;;;;;;5058016;28;20433;-60
2022/11/27 12:59:05;;;;;;;;;;;5.50;99.90;;;;;;5059764;28;19940;-60
2022/11/27 13:01:38;;;;;;;;;;;5.40;99.90;;;;;;5059086;28;19909;-59
2022/11/27 13:04:03;;;;;;;;;;;5.40;99.90;;;;;;5048997;28;19908;-59
2022/11/27 13:06:31;;;;;;;;;;;5.40;99.90;;;;;;5059892;28;19914;-59
2022/11/27 13:09:02;;;;;;;;;;;5.40;99.90;;;;;;5063035;28;19913;-60
2022/11/27 13:11:37;;;;;;;;;;;5.40;99.90;;;;;;5042678;28;19908;-60
2022/11/27 13:14:10;;;;;;;;;;;5.40;99.90;;;;;;5040277;28;19909;-59
2022/11/27 13:16:45;;;;;;;;;;;5.40;99.90;;;;;;5062229;28;19916;-60
2022/11/27 13:19:34;;;;;;;;;;;5.40;99.90;;;;;;5041723;28;19975;-59
2022/11/27 13:22:02;;;;;;;;;;;5.50;99.90;;;;;;5037887;28;19904;-60
2022/11/27 13:24:28;;;;;;;;;;;5.40;99.90;;;;;;5058789;28;20066;-60
2022/11/27 13:27:14;;;;;;;;;;;5.50;99.90;;;;;;5061289;28;19921;-59
2022/11/27 13:29:52;;;;;;;;;;;5.40;99.90;;;;;;5063261;28;20371;-59
2022/11/27 13:32:25;;;;;;;;;;;5.40;99.90;;;;;;5049612;28;20030;-60
2022/11/27 13:34:51;;;;;;;;;;;5.40;99.90;;;;;;5063568;28;19919;-60
2022/11/27 13:37:28;;;;;;;;;;;5.40;99.90;;;;;;5063787;28;20363;-60
2022/11/27 13:39:58;;;;;;;;;;;5.40;99.90;;;;;;5042277;28;19978;-60
2022/11/27 13:42:24;;;;;;;;;;;5.40;99.90;;;;;;5055479;28;19909;-59
2022/11/27 13:44:58;;;;;;;;;;;5.40;99.90;;;;;;5040424;28;19908;-60
2022/11/27 13:47:25;;;;;;;;;;;5.40;99.90;;;;;;5063088;28;19904;-60
2022/11/27 13:49:59;;;;;;;;;;;5.40;99.90;;;;;;5056923;28;19915;-60
2022/11/27 13:52:24;;;;;;;;;;;5.40;99.90;;;;;;5047851;28;19995;-60
2022/11/27 13:54:51;;;;;;;;;;;5.40;99.90;;;;;;5049988;28;20027;-58
2022/11/27 13:57:18;;;;;;;;;;;5.40;99.90;;;;;;5050738;28;19909;-59
2022/11/27 13:59:57;;;;;;;;;;;5.40;99.90;;;;;;5048506;28;19905;-60
2022/11/27 14:02:23;;;;;;;;;;;5.40;99.90;;;;;;5034292;28;20437;-59
2022/11/27 14:04:49;;;;;;;;;;;5.40;99.90;;;;;;5049381;28;19912;-59
2022/11/27 14:07:15;;;;;;;;;;;5.40;99.90;;;;;;5056737;28;19908;-59
2022/11/27 14:09:44;;;;;;;;;;;5.30;99.90;;;;;;5062969;28;19904;-60
2022/11/27 14:12:30;;;;;;;;;;;5.40;99.90;;;;;;5055366;28;20368;-60
2022/11/27 14:15:15;;;;;;;;;;;5.40;99.90;;;;;;5063549;28;19908;-60
2022/11/27 14:17:42;;;;;;;;;;;5.40;99.90;;;;;;5023961;28;19909;-59
2022/11/27 14:20:17;;;;;;;;;;;5.40;99.90;;;;;;5060559;28;19916;-59
2022/11/27 14:22:44;;;;;;;;;;;5.40;99.90;;;;;;5059082;28;19908;-60
2022/11/27 14:25:15;;;;;;;;;;;5.30;99.90;;;;;;5064561;28;19964;-59
2022/11/27 14:27:41;;;;;;;;;;;5.40;99.90;;;;;;5061748;28;19912;-60
2022/11/27 14:30:13;;;;;;;;;;;5.30;99.90;;;;;;5061278;28;19908;-60
2022/11/27 14:32:40;;;;;;;;;;;5.30;99.90;;;;;;5038980;28;20199;-60
2022/11/27 14:35:18;;;;;;;;;;;5.30;99.90;;;;;;5060874;28;20388;-60
2022/11/27 14:37:43;;;;;;;;;;;5.30;99.90;;;;;;5062081;28;19956;-60